createdAt,value
2023-04-03T00:00:09.257Z,101045.06
2023-04-03T00:02:57.862Z,101026.34
2023-04-03T00:05:46.325Z,101036.16
2023-04-03T00:08:34.927Z,101025.50
2023-04-03T00:11:23.429Z,101033.47
2023-04-03T00:14:12.203Z,101027.94
2023-04-03T00:17:02.165Z,101022.97
2023-04-03T00:19:50.683Z,101018.19
2023-04-03T00:22:39.243Z,101026.34
2023-04-03T00:25:27.738Z,101007.84
2023-04-03T00:28:16.406Z,101021.78
2023-04-03T00:31:05.757Z,101017.34
2023-04-03T00:33:55.677Z,101027.69
2023-04-03T00:36:44.216Z,101024.97
2023-04-03T00:39:33.681Z,101018.28
2023-04-03T00:42:22.287Z,101024.22
2023-04-03T00:45:29.091Z,101033.41
2023-04-03T00:48:21.171Z,101017.19
2023-04-03T00:51:13.579Z,101037.84
2023-04-03T00:54:05.311Z,101032.88
2023-04-03T00:56:55.820Z,101027.84
2023-04-03T00:59:47.662Z,101034.41
2023-04-03T01:02:36.194Z,101029.59
2023-04-03T01:05:24.850Z,101024.97
2023-04-03T01:08:14.731Z,101016.53
2023-04-03T01:11:03.263Z,101009.97
2023-04-03T01:13:51.789Z,100969.16
2023-04-03T01:16:40.671Z,101007.53
2023-04-03T01:19:29.210Z,101000.16
2023-04-03T01:22:21.984Z,100983.47
2023-04-03T01:25:11.893Z,101032.03
2023-04-03T01:28:00.758Z,101030.03
2023-04-03T01:30:52.809Z,100959.78
2023-04-03T01:33:43.072Z,101037.69
2023-04-03T01:36:32.887Z,101023.88
2023-04-03T01:39:21.788Z,101027.63
2023-04-03T01:42:10.229Z,101028.34
2023-04-03T01:44:58.802Z,101044.28
2023-04-03T01:47:47.321Z,101034.69
2023-04-03T01:50:37.427Z,101039.44
2023-04-03T01:53:26.301Z,101039.00
2023-04-03T01:56:15.184Z,101041.22
2023-04-03T01:59:03.653Z,101053.22
2023-04-03T02:01:52.088Z,101043.69
2023-04-03T02:04:40.849Z,101027.81
2023-04-03T02:07:30.752Z,101045.69
2023-04-03T02:10:19.308Z,101038.72
2023-04-03T02:13:07.875Z,101042.19
2023-04-03T02:15:56.444Z,101040.97
2023-04-03T02:18:45.927Z,101045.47
2023-04-03T02:21:34.390Z,101049.66
2023-04-03T02:24:24.376Z,101024.94
2023-04-03T02:27:13.052Z,101021.19
2023-04-03T02:30:01.570Z,101034.16
2023-04-03T02:32:50.126Z,101036.41
2023-04-03T02:35:38.896Z,101026.19
2023-04-03T02:38:27.974Z,101037.66
2023-04-03T02:41:18.070Z,101030.41
2023-04-03T02:44:08.170Z,101031.25
2023-04-03T02:46:56.618Z,101025.94
2023-04-03T02:49:46.976Z,100986.19
2023-04-03T02:52:35.490Z,101017.75
2023-04-03T02:55:24.200Z,101001.41
2023-04-03T02:58:14.220Z,101031.16
2023-04-03T03:01:02.679Z,101038.59
2023-04-03T03:03:51.153Z,101041.78
2023-04-03T03:06:39.689Z,101027.94
2023-04-03T03:09:28.411Z,101031.88
2023-04-03T03:12:16.986Z,101014.00
2023-04-03T03:15:08.233Z,101043.34
2023-04-03T03:17:56.695Z,101026.03
2023-04-03T03:20:45.477Z,101040.28
2023-04-03T03:23:34.394Z,101034.81
2023-04-03T03:26:22.879Z,101038.59
2023-04-03T03:29:11.384Z,101043.09
2023-04-03T03:32:01.262Z,101042.22
2023-04-03T03:34:49.715Z,101028.97
2023-04-03T03:37:38.155Z,101040.28
2023-04-03T03:40:27.156Z,101042.06
2023-04-03T03:43:15.684Z,101045.03
2023-04-03T03:46:04.316Z,101040.69
2023-04-03T03:48:54.510Z,101038.47
2023-04-03T03:51:43.027Z,101035.53
2023-04-03T03:54:31.482Z,100994.72
2023-04-03T03:57:20.062Z,101032.88
2023-04-03T04:00:09.724Z,101037.03
2023-04-03T04:02:59.339Z,101039.56
2023-04-03T04:05:49.780Z,101040.97
2023-04-03T04:08:38.452Z,101047.53
2023-04-03T04:11:28.652Z,101042.09
2023-04-03T04:14:17.196Z,101034.28
2023-04-03T04:17:05.986Z,101045.88
2023-04-03T04:19:54.492Z,101044.19
2023-04-03T04:22:44.342Z,101031.47
2023-04-03T04:25:33.714Z,101040.00
2023-04-03T04:28:22.209Z,101043.63
2023-04-03T04:31:10.645Z,101042.22
2023-04-03T04:33:59.137Z,101039.00
2023-04-03T04:36:47.709Z,101044.59
2023-04-03T04:39:37.830Z,101032.72
2023-04-03T04:42:26.633Z,101050.75
2023-04-03T04:45:16.193Z,101039.84
2023-04-03T04:48:05.088Z,101049.34
2023-04-03T04:50:53.599Z,101051.19
2023-04-03T04:53:42.239Z,101051.31
2023-04-03T04:56:32.068Z,101059.16
2023-04-03T04:59:21.921Z,101060.66
2023-04-03T05:02:10.530Z,101063.03
2023-04-03T05:04:59.061Z,101070.06
2023-04-03T05:07:47.531Z,101060.28
2023-04-03T05:10:36.172Z,101071.72
2023-04-03T05:13:26.245Z,101070.63
2023-04-03T05:16:15.048Z,101074.97
2023-04-03T05:19:03.686Z,101072.75
2023-04-03T05:21:52.205Z,101073.97
2023-04-03T05:24:40.722Z,101076.50
2023-04-03T05:27:29.776Z,101084.47
2023-04-03T05:30:19.958Z,101095.06
2023-04-03T05:33:08.479Z,101077.16
2023-04-03T05:35:57.015Z,101097.72
2023-04-03T05:38:45.724Z,101102.16
2023-04-03T05:41:34.489Z,101104.41
2023-04-03T05:44:23.035Z,101107.38
2023-04-03T05:47:12.940Z,101098.28
2023-04-03T05:50:01.432Z,101110.03
2023-04-03T05:52:51.707Z,101109.59
2023-04-03T05:55:40.240Z,101109.03
2023-04-03T05:58:28.801Z,101097.28
2023-04-03T06:01:17.400Z,101068.09
2023-04-03T06:04:09.997Z,101110.19
2023-04-03T06:06:59.688Z,101103.19
2023-04-03T06:09:48.251Z,101114.50
2023-04-03T06:12:36.795Z,101125.25
2023-04-03T06:15:25.827Z,101109.63
2023-04-03T06:18:14.417Z,101117.59
2023-04-03T06:21:05.747Z,101090.19
2023-04-03T06:23:54.335Z,101107.81
2023-04-03T06:26:43.022Z,101112.16
2023-04-03T06:29:31.832Z,101122.47
2023-04-03T06:32:20.437Z,101114.34
2023-04-03T06:35:10.024Z,101118.41
2023-04-03T06:37:59.959Z,101119.66
2023-04-03T06:40:48.666Z,101120.41
2023-04-03T06:43:37.178Z,101118.97
2023-04-03T06:46:26.480Z,101126.09
2023-04-03T06:49:16.062Z,101119.97
2023-04-03T06:52:05.772Z,101125.13
2023-04-03T06:54:58.233Z,101120.25
2023-04-03T06:57:47.218Z,101094.09
2023-04-03T07:00:35.688Z,101132.53
2023-04-03T07:03:24.778Z,101132.41
2023-04-03T07:06:14.632Z,101132.25
2023-04-03T07:09:03.633Z,101126.53
2023-04-03T07:11:53.484Z,101133.53
2023-04-03T07:14:42.624Z,101130.44
2023-04-03T07:17:31.202Z,101145.78
2023-04-03T07:20:19.946Z,101149.09
2023-04-03T07:23:08.746Z,101125.38
2023-04-03T07:25:57.437Z,101150.19
2023-04-03T07:28:48.549Z,101154.88
2023-04-03T07:31:37.077Z,101151.78
2023-04-03T07:34:25.842Z,101148.53
2023-04-03T07:37:14.287Z,101155.69
2023-04-03T07:40:04.731Z,101167.81
2023-04-03T07:42:53.462Z,101170.31
2023-04-03T07:45:44.273Z,101180.59
2023-04-03T07:48:32.801Z,101164.69
2023-04-03T07:51:21.363Z,101165.56
2023-04-03T07:54:09.914Z,101173.63
2023-04-03T07:56:58.901Z,101174.41
2023-04-03T07:59:47.446Z,101186.56
2023-04-03T08:02:38.030Z,101145.06
2023-04-03T08:05:26.684Z,101180.03
2023-04-03T08:08:18.628Z,101180.19
2023-04-03T08:11:09.124Z,101181.81
2023-04-03T08:13:58.160Z,101188.97
2023-04-03T08:16:47.518Z,101178.94
2023-04-03T08:19:37.474Z,101190.78
2023-04-03T08:22:26.226Z,101190.28
2023-04-03T08:25:15.654Z,101170.03
2023-04-03T08:28:04.577Z,101180.50
2023-04-03T08:30:53.158Z,101180.53
2023-04-03T08:33:42.267Z,101177.09
2023-04-03T08:36:32.436Z,101168.88
2023-04-03T08:39:20.901Z,101182.56
2023-04-03T08:42:17.492Z,101179.50
2023-04-03T08:45:12.213Z,101175.78
2023-04-03T08:48:03.100Z,101157.81
2023-04-03T08:50:55.359Z,101182.34
2023-04-03T08:53:51.609Z,101176.91
2023-04-03T08:56:41.986Z,101179.09
2023-04-03T08:59:32.667Z,101177.59
2023-04-03T09:02:28.429Z,101184.41
2023-04-03T09:05:19.287Z,101189.44
2023-04-03T09:08:14.765Z,101206.50
2023-04-03T09:11:14.812Z,101189.59
2023-04-03T09:14:05.354Z,101172.50
2023-04-03T09:16:57.272Z,101191.69
2023-04-03T09:19:53.751Z,101171.88
2023-04-03T09:22:49.823Z,101198.13
2023-04-03T09:25:41.157Z,101190.97
2023-04-03T09:28:38.974Z,101193.66
2023-04-03T09:31:37.220Z,101186.56
2023-04-03T09:34:28.659Z,101189.59
2023-04-03T09:37:38.993Z,101185.16
2023-04-03T09:40:37.335Z,101183.56
2023-04-03T09:43:28.786Z,101196.03
2023-04-03T09:46:24.280Z,101180.94
2023-04-03T09:49:13.861Z,101133.00
2023-04-03T09:52:21.765Z,101175.69
2023-04-03T09:55:16.298Z,101172.34
2023-04-03T09:58:09.674Z,101177.13
2023-04-03T10:00:59.731Z,101174.44
2023-04-03T10:04:09.217Z,101172.34
2023-04-03T10:06:57.879Z,101173.03
2023-04-03T10:09:57.079Z,101164.84
2023-04-03T10:12:45.793Z,101192.78
2023-04-03T10:15:38.447Z,101166.06
2023-04-03T10:18:33.399Z,101181.22
2023-04-03T10:21:36.509Z,101159.97
2023-04-03T10:24:29.182Z,101186.88
2023-04-03T10:27:20.772Z,101170.59
2023-04-03T10:30:22.899Z,101156.88
2023-04-03T10:33:22.930Z,101170.06
2023-04-03T10:36:17.796Z,101117.66
2023-04-03T10:39:17.845Z,101163.06
2023-04-03T10:42:17.369Z,101172.22
2023-04-03T10:45:21.021Z,101170.88
2023-04-03T10:48:13.097Z,101177.06
2023-04-03T10:51:07.316Z,101174.06
2023-04-03T10:53:59.281Z,101162.19
2023-04-03T10:56:57.896Z,101168.88
2023-04-03T10:59:51.981Z,101154.66
2023-04-03T11:02:44.855Z,101177.91
2023-04-03T11:05:38.299Z,101165.50
2023-04-03T11:08:32.231Z,101163.13
2023-04-03T11:11:24.515Z,101155.31
2023-04-03T11:14:18.484Z,101135.06
2023-04-03T11:17:14.334Z,101119.31
2023-04-03T11:20:08.071Z,101161.47
2023-04-03T11:23:00.890Z,101150.34
2023-04-03T11:25:53.253Z,101155.13
2023-04-03T11:28:42.586Z,101157.56
2023-04-03T11:31:42.278Z,101164.00
2023-04-03T11:34:37.279Z,101158.38
2023-04-03T11:37:30.829Z,101108.31
2023-04-03T11:40:24.656Z,101159.06
2023-04-03T11:43:26.501Z,101147.50
2023-04-03T11:46:17.260Z,101150.25
2023-04-03T11:49:08.070Z,101151.00
2023-04-03T11:51:57.978Z,101145.75
2023-04-03T11:54:50.781Z,101148.97
2023-04-03T11:58:05.417Z,101134.84
2023-04-03T12:01:02.377Z,101139.09
2023-04-03T12:04:10.016Z,101089.19
2023-04-03T12:07:20.830Z,101140.25
2023-04-03T12:10:31.011Z,101123.25
2023-04-03T12:13:21.076Z,101126.47
2023-04-03T12:16:20.672Z,101129.78
2023-04-03T12:19:42.014Z,101136.31
2023-04-03T12:22:31.517Z,101126.63
2023-04-03T12:25:43.809Z,101132.06
2023-04-03T12:28:38.527Z,101115.88
2023-04-03T12:31:41.101Z,101115.19
2023-04-03T12:34:45.206Z,101109.34
2023-04-03T12:37:45.759Z,101118.97
2023-04-03T12:40:38.029Z,101114.19
2023-04-03T12:43:39.359Z,101120.47
2023-04-03T12:46:31.035Z,101117.16
2023-04-03T12:49:42.544Z,101112.94
2023-04-03T12:52:35.595Z,101118.66
2023-04-03T12:55:24.407Z,101117.16
2023-04-03T12:58:18.438Z,101109.44
2023-04-03T13:01:13.357Z,101107.97
2023-04-03T13:04:02.110Z,101104.72
2023-04-03T13:06:53.413Z,101093.84
2023-04-03T13:09:42.204Z,101078.31
2023-04-03T13:12:32.380Z,101108.00
2023-04-03T13:15:23.705Z,101116.25
2023-04-03T13:18:27.795Z,101113.44
2023-04-03T13:21:19.618Z,101071.78
2023-04-03T13:24:15.426Z,101107.97
2023-04-03T13:27:05.496Z,101112.81
2023-04-03T13:29:56.330Z,101102.66
2023-04-03T13:32:45.814Z,101110.44
2023-04-03T13:35:37.843Z,101112.78
2023-04-03T13:38:28.113Z,101036.22
2023-04-03T13:41:29.321Z,101102.59
2023-04-03T13:44:25.282Z,101103.78
2023-04-03T13:47:20.395Z,101104.16
2023-04-03T13:50:23.382Z,101087.88
2023-04-03T13:53:14.507Z,101103.47
2023-04-03T13:56:12.082Z,101099.25
2023-04-03T13:59:08.730Z,101100.63
2023-04-03T14:02:12.722Z,101102.19
2023-04-03T14:05:04.433Z,101065.69
2023-04-03T14:07:53.062Z,101091.50
2023-04-03T14:10:42.911Z,101095.81
2023-04-03T14:13:32.156Z,101088.81
2023-04-03T14:16:24.254Z,101098.16
2023-04-03T14:19:20.365Z,101082.56
2023-04-03T14:22:16.589Z,101085.47
2023-04-03T14:25:05.837Z,101087.81
2023-04-03T14:27:54.979Z,101087.13
2023-04-03T14:30:43.472Z,101076.38
2023-04-03T14:33:35.764Z,101074.03
2023-04-03T14:36:27.167Z,101083.41
2023-04-03T14:39:19.791Z,101075.53
2023-04-03T14:42:08.576Z,101078.91
2023-04-03T14:44:57.237Z,101081.03
2023-04-03T14:47:48.921Z,101073.91
2023-04-03T14:50:39.128Z,101070.44
2023-04-03T14:53:38.917Z,101071.25
2023-04-03T14:56:30.131Z,101070.91
2023-04-03T14:59:20.980Z,101065.41
2023-04-03T15:02:28.779Z,101057.50
2023-04-03T15:05:18.031Z,101066.72
2023-04-03T15:08:14.417Z,101065.88
2023-04-03T15:11:02.997Z,101060.72
2023-04-03T15:13:51.519Z,101060.88
2023-04-03T15:16:40.116Z,101066.59
2023-04-03T15:19:28.717Z,101054.56
2023-04-03T15:22:18.889Z,101059.22
2023-04-03T15:25:09.713Z,100946.13
2023-04-03T15:27:59.044Z,101055.56
2023-04-03T15:30:47.666Z,101057.88
2023-04-03T15:33:36.567Z,101058.03
2023-04-03T15:36:34.235Z,101054.16
2023-04-03T15:39:24.259Z,101048.25
2023-04-03T15:42:14.102Z,101032.75
2023-04-03T15:45:02.757Z,101041.63
2023-04-03T15:47:51.582Z,101012.97
2023-04-03T15:50:40.904Z,101059.91
2023-04-03T15:53:29.447Z,101062.09
2023-04-03T15:56:17.908Z,101062.41
2023-04-03T15:59:08.121Z,101061.56
2023-04-03T16:01:56.741Z,101062.75
2023-04-03T16:04:45.353Z,101060.56
2023-04-03T16:07:33.978Z,101060.91
2023-04-03T16:10:22.852Z,101060.56
2023-04-03T16:13:11.406Z,101057.56
2023-04-03T16:16:02.128Z,101058.91
2023-04-03T16:18:50.714Z,101052.88
2023-04-03T16:21:39.281Z,101067.09
2023-04-03T16:24:27.871Z,101044.69
2023-04-03T16:27:16.433Z,101053.38
2023-04-03T16:30:06.109Z,101008.75
2023-04-03T16:32:56.520Z,101052.84
2023-04-03T16:35:45.422Z,101062.88
2023-04-03T16:38:34.054Z,101047.78
2023-04-03T16:41:22.606Z,101059.00
2023-04-03T16:44:11.282Z,101059.19
2023-04-03T16:46:59.843Z,101060.19
2023-04-03T16:49:49.925Z,101054.84
2023-04-03T16:52:38.830Z,101054.84
2023-04-03T16:55:27.300Z,101056.16
2023-04-03T16:58:16.284Z,101058.00
2023-04-03T17:01:11.717Z,101060.97
2023-04-03T17:04:00.384Z,101065.69
2023-04-03T17:06:50.396Z,101060.84
2023-04-03T17:09:39.020Z,101056.97
2023-04-03T17:12:27.615Z,101069.00
2023-04-03T17:15:16.214Z,101065.31
2023-04-03T17:18:05.006Z,101068.34
2023-04-03T17:20:53.574Z,101060.13
2023-04-03T17:23:45.417Z,101066.66
2023-04-03T17:26:33.917Z,101059.78
2023-04-03T17:29:22.429Z,101068.63
2023-04-03T17:32:11.002Z,101061.28
2023-04-03T17:34:59.636Z,101067.59
2023-04-03T17:37:49.707Z,101067.72
2023-04-03T17:40:39.573Z,101069.56
2023-04-03T17:43:28.386Z,101032.47
2023-04-03T17:46:17.663Z,101060.03
2023-04-03T17:49:06.290Z,101052.69
2023-04-03T17:51:54.758Z,101061.84
2023-04-03T17:54:43.492Z,101058.28
2023-04-03T17:57:33.293Z,101058.97
2023-04-03T18:00:22.130Z,101067.47
2023-04-03T18:03:11.697Z,101060.88
2023-04-03T18:06:00.300Z,101062.53
2023-04-03T18:08:50.660Z,101068.41
2023-04-03T18:11:39.488Z,101055.94
2023-04-03T18:14:29.962Z,101070.44
2023-04-03T18:17:19.525Z,101055.22
2023-04-03T18:20:10.026Z,101061.56
2023-04-03T18:22:58.458Z,101076.56
2023-04-03T18:25:47.259Z,101077.00
2023-04-03T18:28:35.888Z,101063.28
2023-04-03T18:31:27.069Z,101059.09
2023-04-03T18:34:15.734Z,101069.38
2023-04-03T18:37:05.903Z,101064.81
2023-04-03T18:39:54.418Z,101075.59
2023-04-03T18:42:43.033Z,101088.75
2023-04-03T18:45:31.682Z,101022.56
2023-04-03T18:48:21.915Z,101085.50
2023-04-03T18:51:11.527Z,101089.78
2023-04-03T18:54:00.072Z,101090.38
2023-04-03T18:56:48.586Z,101090.91
2023-04-03T18:59:37.565Z,101087.63
2023-04-03T19:02:26.995Z,101088.47
2023-04-03T19:05:19.696Z,101094.63
2023-04-03T19:08:08.213Z,101097.06
2023-04-03T19:10:56.751Z,101093.50
2023-04-03T19:13:46.992Z,101095.47
2023-04-03T19:16:52.381Z,101090.84
2023-04-03T19:19:41.174Z,101088.38
2023-04-03T19:22:31.526Z,101081.97
2023-04-03T19:25:20.528Z,101099.88
2023-04-03T19:28:09.620Z,101097.38
2023-04-03T19:30:59.278Z,101097.75
2023-04-03T19:33:48.276Z,101092.47
2023-04-03T19:36:37.498Z,101105.63
2023-04-03T19:39:29.064Z,101095.91
2023-04-03T19:42:18.804Z,101101.72
2023-04-03T19:45:09.547Z,101098.59
2023-04-03T19:48:01.269Z,101098.41
2023-04-03T19:50:49.797Z,101096.63
2023-04-03T19:53:38.620Z,101098.03
2023-04-03T19:56:28.464Z,101100.88
2023-04-03T19:59:17.713Z,101094.72
2023-04-03T20:02:06.474Z,101100.31
2023-04-03T20:04:55.195Z,101095.44
2023-04-03T20:07:43.717Z,101102.47
2023-04-03T20:10:32.221Z,101094.63
2023-04-03T20:13:22.398Z,101100.25
2023-04-03T20:16:10.971Z,101088.91
2023-04-03T20:19:00.283Z,101096.59
2023-04-03T20:21:49.961Z,101101.81
2023-04-03T20:24:38.549Z,101098.31
2023-04-03T20:27:27.693Z,101098.72
2023-04-03T20:30:17.603Z,101099.97
2023-04-03T20:33:06.261Z,101085.50
2023-04-03T20:35:55.233Z,101086.00
2023-04-03T20:38:43.975Z,101083.50
2023-04-03T20:41:35.398Z,101095.56
2023-04-03T20:44:23.988Z,101092.91
2023-04-03T20:47:14.205Z,101095.56
2023-04-03T20:50:02.954Z,101097.78
2023-04-03T20:52:51.489Z,101093.09
2023-04-03T20:55:40.229Z,101097.97
2023-04-03T20:58:29.731Z,101105.38
2023-04-03T21:01:20.358Z,101095.47
2023-04-03T21:04:17.206Z,101102.59
2023-04-03T21:07:43.337Z,101099.41
2023-04-03T21:11:09.402Z,101099.81
2023-04-03T21:14:35.446Z,101102.19
2023-04-03T21:17:23.699Z,101099.09
2023-04-03T21:20:13.610Z,101096.59
2023-04-03T21:23:02.234Z,101096.44
2023-04-03T21:25:50.851Z,101094.66
2023-04-03T21:28:39.370Z,101103.16
2023-04-03T21:31:48.448Z,101105.84
2023-04-03T21:34:36.971Z,101105.25
2023-04-03T21:37:26.856Z,101106.53
2023-04-03T21:40:15.660Z,101104.31
2023-04-03T21:43:05.077Z,101001.47
2023-04-03T21:45:54.402Z,101111.56
2023-04-03T21:48:42.944Z,101113.25
2023-04-03T21:51:31.572Z,101112.00
2023-04-03T21:54:21.599Z,101106.00
2023-04-03T21:57:11.781Z,101083.47
2023-04-03T22:00:00.425Z,101108.22
2023-04-03T22:02:51.238Z,101114.81
2023-04-03T22:05:41.596Z,101094.41
2023-04-03T22:08:30.138Z,101106.53
2023-04-03T22:11:22.474Z,101094.66
2023-04-03T22:14:11.187Z,101098.84
2023-04-03T22:16:59.805Z,101102.63
2023-04-03T22:19:48.251Z,101102.59
2023-04-03T22:22:36.730Z,101097.72
2023-04-03T22:25:25.221Z,101106.94
2023-04-03T22:28:16.367Z,101101.03
2023-04-03T22:31:05.876Z,101094.78
2023-04-03T22:33:54.899Z,101102.03
2023-04-03T22:36:43.865Z,101101.75
2023-04-03T22:39:32.478Z,101102.84
2023-04-03T22:42:21.333Z,101103.09
2023-04-03T22:45:11.775Z,101096.94
2023-04-03T22:48:01.198Z,101096.41
2023-04-03T22:50:49.764Z,101094.56
2023-04-03T22:53:39.019Z,101080.72
2023-04-03T22:56:27.591Z,101096.50
2023-04-03T22:59:16.225Z,101092.44
2023-04-03T23:02:06.431Z,101091.78
2023-04-03T23:04:55.035Z,101092.59
2023-04-03T23:07:43.598Z,101098.44
2023-04-03T23:10:32.203Z,101089.34
2023-04-03T23:13:20.726Z,101093.25
2023-04-03T23:16:09.579Z,101087.47
2023-04-03T23:18:59.618Z,101094.31
2023-04-03T23:21:48.326Z,101096.28
2023-04-03T23:24:37.565Z,101094.16
2023-04-03T23:27:26.421Z,101047.81
2023-04-03T23:30:14.961Z,101099.22
2023-04-03T23:33:03.466Z,101095.09
2023-04-03T23:35:53.416Z,101086.19
2023-04-03T23:38:42.014Z,101088.66
2023-04-03T23:41:30.467Z,101093.56
2023-04-03T23:44:18.923Z,101087.31
2023-04-03T23:47:07.494Z,101088.63
2023-04-03T23:49:56.132Z,101086.63
2023-04-03T23:52:46.389Z,101086.31
2023-04-03T23:55:36.161Z,101089.16
2023-04-03T23:58:24.646Z,101076.84
